Time;durP1;ratioP1;P1;durP2;ratioP2;P2;SDS_P1;SDS_P2;PMS_P1;PMS_P2;Temp;Humidity;BMP_temperature;BMP_pressure;BME280_temperature;BME280_humidity;BME280_pressure;Samples;Min_cycle;Max_cycle;Signal;HPM_P1;HPM_P2
2021/04/22 00:01:36;;;;;;;28.27;13.37;;;;;;;9.59;61.64;100657.44;125070;1099;104382;-75
2021/04/22 00:04:06;;;;;;;27.27;14.00;;;;;;;9.59;61.65;100666.17;125553;1099;104182;-75
2021/04/22 00:06:35;;;;;;;31.17;14.57;;;;;;;9.57;61.14;100667.84;125388;1099;104348;-76
2021/04/22 00:09:05;;;;;;;31.77;15.30;;;;;;;9.54;61.15;100665.09;124944;1099;104204;-75
2021/04/22 00:11:34;;;;;;;35.65;17.55;;;;;;;9.56;61.18;100667.78;124981;1099;104178;-76
2021/04/22 00:14:02;;;;;;;34.20;16.30;;;;;;;9.58;61.42;100671.35;124971;1099;104181;-76
2021/04/22 00:16:31;;;;;;;30.70;15.77;;;;;;;9.58;61.94;100671.35;125463;1099;104203;-76
2021/04/22 00:19:01;;;;;;;36.47;17.63;;;;;;;9.57;62.00;100672.17;125625;1099;104351;-76
2021/04/22 00:21:29;;;;;;;32.57;16.40;;;;;;;9.56;61.59;100667.78;125632;1099;104165;-76
2021/04/22 00:23:58;;;;;;;34.03;16.67;;;;;;;9.53;61.63;100664.18;125688;1099;104165;-76
2021/04/22 00:26:27;;;;;;;32.70;17.53;;;;;;;9.49;62.17;100670.14;125640;1099;104233;-76
2021/04/22 00:28:56;;;;;;;33.50;17.77;;;;;;;9.46;61.89;100667.39;125692;1099;104172;-76
2021/04/22 00:31:26;;;;;;;32.80;17.10;;;;;;;9.42;61.76;100675.05;125667;1099;104253;-76
2021/04/22 00:33:55;;;;;;;35.30;17.50;;;;;;;9.33;61.72;100675.53;125686;1099;104172;-75
2021/04/22 00:36:23;;;;;;;34.33;16.97;;;;;;;9.31;61.77;100680.70;125677;1099;104169;-75
2021/04/22 00:38:52;;;;;;;29.80;15.73;;;;;;;9.35;61.92;100679.14;125643;1099;104255;-75
2021/04/22 00:41:21;;;;;;;32.77;15.70;;;;;;;9.37;62.47;100679.20;125664;1099;104181;-76
2021/04/22 00:43:53;;;;;;;33.20;16.17;;;;;;;9.38;62.72;100679.27;125625;1099;104357;-76
2021/04/22 00:46:22;;;;;;;30.00;15.93;;;;;;;9.38;62.43;100679.27;125597;1099;104197;-75
2021/04/22 00:48:50;;;;;;;34.73;17.50;;;;;;;9.38;62.54;100674.03;125652;1099;104300;-76
2021/04/22 00:51:19;;;;;;;31.00;17.23;;;;;;;9.39;62.45;100669.68;125656;1099;104175;-75
2021/04/22 00:53:49;;;;;;;31.03;18.27;;;;;;;9.38;62.62;100674.03;125620;1099;104335;-76
2021/04/22 00:56:18;;;;;;;38.10;20.57;;;;;;;9.35;62.62;100673.90;125620;1099;104644;-77
2021/04/22 00:58:46;;;;;;;38.67;22.77;;;;;;;9.33;63.04;100679.06;125633;1099;104281;-75
2021/04/22 01:01:15;;;;;;;39.97;23.57;;;;;;;9.26;62.56;100684.85;125665;1099;104195;-76
2021/04/22 01:03:44;;;;;;;37.70;24.03;;;;;;;9.23;62.85;100689.07;125690;1099;104245;-76
2021/04/22 01:06:13;;;;;;;38.57;23.00;;;;;;;9.22;63.17;100684.66;125643;1098;105466;-76
2021/04/22 01:08:41;;;;;;;36.67;22.20;;;;;;;9.23;63.13;100689.07;125602;1099;104178;-76
2021/04/22 01:11:12;;;;;;;37.65;20.15;;;;;;;9.26;63.19;100687.47;125660;1099;104293;-75
2021/04/22 01:13:41;;;;;;;39.73;22.33;;;;;;;9.31;62.60;100685.05;125693;1099;104248;-76
2021/04/22 01:16:10;;;;;;;37.50;23.70;;;;;;;9.32;63.16;100684.24;125695;1099;104175;-76
2021/04/22 01:18:40;;;;;;;42.27;23.90;;;;;;;9.25;62.44;100688.29;125648;1099;104179;-76
2021/04/22 01:21:12;;;;;;;40.60;24.23;;;;;;;9.18;63.27;100691.48;125667;1098;104450;-75
2021/04/22 01:23:41;;;;;;;40.75;24.40;;;;;;;9.14;62.73;100700.02;125666;1099;104217;-75
2021/04/22 01:26:12;;;;;;;35.93;21.27;;;;;;;9.14;63.35;100695.66;125650;1098;104194;-76
2021/04/22 01:28:41;;;;;;;33.47;19.77;;;;;;;9.13;62.85;100692.98;125636;1099;104172;-76
2021/04/22 01:31:10;;;;;;;32.50;19.07;;;;;;;9.10;63.36;100695.46;125660;1099;104150;-75
2021/04/22 01:33:39;;;;;;;32.93;17.93;;;;;;;9.09;62.90;100691.08;125665;1099;104172;-76
2021/04/22 01:36:10;;;;;;;31.83;17.43;;;;;;;9.06;62.92;100696.17;125592;1099;104162;-77
2021/04/22 01:38:40;;;;;;;32.47;17.13;;;;;;;9.06;63.01;100697.06;125629;1099;104597;-75
2021/04/22 01:41:09;;;;;;;29.27;15.97;;;;;;;9.07;63.45;100697.94;125618;1099;104216;-76
2021/04/22 01:43:37;;;;;;;30.13;17.70;;;;;;;9.06;63.28;100693.55;125674;1099;104297;-75
2021/04/22 01:46:06;;;;;;;33.67;19.93;;;;;;;9.07;63.60;100688.39;125615;1099;104200;-75
2021/04/22 01:48:35;;;;;;;34.13;19.27;;;;;;;9.04;63.60;100690.87;125640;1099;104194;-77
2021/04/22 01:51:05;;;;;;;30.87;17.37;;;;;;;9.00;63.46;100692.43;125653;1099;104294;-76
2021/04/22 01:53:33;;;;;;;30.13;18.27;;;;;;;8.96;63.28;100695.75;125693;1097;104191;-75
2021/04/22 01:56:02;;;;;;;29.60;16.43;;;;;;;8.90;63.12;100694.59;125623;1099;104253;-75
2021/04/22 01:58:31;;;;;;;30.33;17.30;;;;;;;8.84;63.85;100703.05;125579;1099;104174;-76
2021/04/22 02:01:01;;;;;;;30.07;17.43;;;;;;;8.80;63.67;100708.95;125644;1099;104239;-76
2021/04/22 02:03:32;;;;;;;30.47;17.37;;;;;;;8.78;64.00;100695.80;125684;1099;104536;-75
2021/04/22 02:06:02;;;;;;;26.23;14.00;;;;;;;8.76;63.66;100694.84;125719;1099;104172;-75
2021/04/22 02:08:31;;;;;;;26.00;13.63;;;;;;;8.74;64.00;100698.20;125665;1099;104300;-77
2021/04/22 02:11:02;;;;;;;23.93;12.73;;;;;;;8.72;63.42;100700.75;125630;1099;104326;-75
2021/04/22 02:13:32;;;;;;;26.60;14.10;;;;;;;8.72;63.64;100697.25;125662;1099;104313;-76
2021/04/22 02:16:01;;;;;;;27.40;14.53;;;;;;;8.72;64.17;100695.52;125643;1099;104290;-75
2021/04/22 02:18:30;;;;;;;29.93;15.20;;;;;;;8.72;63.66;100698.13;125715;1099;104217;-76
2021/04/22 02:20:58;;;;;;;25.67;15.43;;;;;;;8.71;64.30;100698.98;125654;1099;104729;-75
2021/04/22 02:23:30;;;;;;;30.47;15.83;;;;;;;8.69;64.28;100699.72;125617;1099;104168;-75
2021/04/22 02:25:59;;;;;;;26.03;14.53;;;;;;;8.66;63.99;100700.46;125660;1099;104171;-76
2021/04/22 02:28:28;;;;;;;27.27;15.37;;;;;;;8.62;63.93;100704.66;125660;1099;104175;-75
2021/04/22 02:30:56;;;;;;;24.50;12.70;;;;;;;8.57;64.46;100706.18;125599;1099;104230;-76
2021/04/22 02:33:25;;;;;;;24.80;12.77;;;;;;;8.54;63.76;100700.80;125705;1098;104173;-76
2021/04/22 02:35:57;;;;;;;25.67;13.53;;;;;;;8.56;64.24;100699.14;125589;1099;104294;-76
2021/04/22 02:38:26;;;;;;;25.53;12.67;;;;;;;8.57;64.67;100703.56;125640;1097;104277;-75
2021/04/22 02:40:57;;;;;;;24.23;12.13;;;;;;;8.56;64.39;100709.61;125612;1099;104369;-75
2021/04/22 02:43:28;;;;;;;23.57;12.13;;;;;;;8.52;63.88;100714.63;125684;1099;104178;-76
2021/04/22 02:45:57;;;;;;;26.03;13.10;;;;;;;8.53;64.23;100719.92;125674;1099;104216;-76
2021/04/22 02:48:26;;;;;;;23.37;12.23;;;;;;;8.52;64.65;100720.73;125607;1099;104348;-76
2021/04/22 02:50:56;;;;;;;24.00;12.77;;;;;;;8.50;64.75;100719.78;125611;1098;104182;-76
2021/04/22 02:53:25;;;;;;;24.97;12.40;;;;;;;8.44;64.34;100712.53;125602;1098;104315;-76
2021/04/22 02:55:54;;;;;;;24.23;12.03;;;;;;;8.44;64.26;100715.14;125645;1099;104161;-76
2021/04/22 02:58:25;;;;;;;23.30;11.60;;;;;;;8.43;64.24;100717.64;125663;1099;104193;-76
2021/04/22 03:00:55;;;;;;;24.05;13.05;;;;;;;8.40;64.37;100718.42;125615;1099;104428;-76
2021/04/22 03:03:24;;;;;;;23.63;12.33;;;;;;;8.39;64.36;100721.84;125692;1099;104173;-75
2021/04/22 03:05:56;;;;;;;25.65;12.85;;;;;;;8.36;64.35;100715.58;125633;1099;104165;-76
2021/04/22 03:08:25;;;;;;;26.37;13.60;;;;;;;8.38;64.43;100719.16;125656;1099;104174;-76
2021/04/22 03:10:54;;;;;;;25.57;12.50;;;;;;;8.37;65.17;100720.00;125618;1099;104278;-75
2021/04/22 03:13:22;;;;;;;25.03;12.67;;;;;;;8.37;65.20;100722.62;125636;1099;104453;-76
2021/04/22 03:15:51;;;;;;;26.40;12.53;;;;;;;8.39;65.24;100731.42;125667;1099;104172;-75
2021/04/22 03:18:20;;;;;;;24.13;12.17;;;;;;;8.41;65.02;100729.77;125688;1099;104242;-75
2021/04/22 03:20:49;;;;;;;22.83;12.37;;;;;;;8.41;65.27;100720.22;125648;1098;104166;-76
2021/04/22 03:23:17;;;;;;;23.07;11.97;;;;;;;8.44;64.84;100716.88;125641;1099;104217;-76
2021/04/22 03:25:46;;;;;;;24.07;12.07;;;;;;;8.47;65.25;100730.09;125624;1099;104357;-76
2021/04/22 03:28:15;;;;;;;25.00;12.45;;;;;;;8.49;65.27;100733.67;125635;1099;104179;-75
2021/04/22 03:30:44;;;;;;;23.77;12.77;;;;;;;8.50;64.76;100727.63;125608;1098;104293;-75
2021/04/22 03:33:14;;;;;;;22.93;11.97;;;;;;;8.55;65.15;100722.61;125654;1099;104165;-75
2021/04/22 03:35:43;;;;;;;23.40;12.77;;;;;;;8.57;64.91;100727.11;125642;1099;104169;-75
2021/04/22 03:38:12;;;;;;;24.30;12.53;;;;;;;8.62;64.96;100725.59;125656;1099;104312;-75
2021/04/22 03:40:43;;;;;;;25.93;13.40;;;;;;;8.63;65.35;100731.70;125627;1099;104169;-75
2021/04/22 03:43:12;;;;;;;27.57;12.87;;;;;;;8.67;64.95;100735.39;125666;1098;104281;-75
2021/04/22 03:45:41;;;;;;;23.87;12.60;;;;;;;8.70;65.33;100733.80;125655;1099;104168;-75
2021/04/22 03:48:10;;;;;;;24.60;11.60;;;;;;;8.75;65.30;100739.25;125647;1099;104325;-76
2021/04/22 03:50:40;;;;;;;36.70;13.07;;;;;;;8.78;65.49;100742.02;125606;1099;105537;-76
2021/04/22 03:53:09;;;;;;;29.63;12.53;;;;;;;8.81;64.88;100752.63;125584;1099;104204;-76
2021/04/22 03:55:38;;;;;;;27.97;12.27;;;;;;;8.80;65.29;100745.59;125646;1099;104239;-75
2021/04/22 03:58:06;;;;;;;27.73;11.30;;;;;;;8.79;65.40;100754.28;125634;1097;104174;-76
2021/04/22 04:00:35;;;;;;;28.80;11.03;;;;;;;8.77;65.41;100758.52;125654;1099;104163;-76
2021/04/22 04:03:04;;;;;;;28.77;12.27;;;;;;;8.79;65.27;100749.05;125585;1099;108243;-76
2021/04/22 04:05:33;;;;;;;31.07;11.47;;;;;;;8.84;65.13;100758.00;125640;1098;104169;-76
2021/04/22 04:08:01;;;;;;;26.87;12.13;;;;;;;8.91;65.51;100767.94;125618;1099;104156;-77
2021/04/22 04:10:30;;;;;;;26.43;11.40;;;;;;;8.98;65.19;100772.62;125666;1099;104175;-76
2021/04/22 04:13:00;;;;;;;28.13;12.43;;;;;;;8.98;65.47;100767.38;125642;1099;104721;-76
2021/04/22 04:15:28;;;;;;;27.47;12.60;;;;;;;8.98;65.26;100775.23;125640;1099;104181;-76
2021/04/22 04:17:57;;;;;;;27.37;11.90;;;;;;;8.99;64.92;100782.27;125624;1098;104175;-76
2021/04/22 04:20:26;;;;;;;32.27;13.40;;;;;;;9.04;65.73;100774.63;125644;1099;104172;-76
2021/04/22 04:22:55;;;;;;;34.23;13.30;;;;;;;9.11;65.11;100781.04;125665;1099;104179;-76
2021/04/22 04:25:24;;;;;;;28.10;13.87;;;;;;;9.15;65.32;100778.63;125647;1099;104172;-76
2021/04/22 04:27:53;;;;;;;30.97;12.57;;;;;;;9.20;65.64;100770.98;125626;1099;104300;-76
2021/04/22 04:30:22;;;;;;;31.27;13.33;;;;;;;9.24;64.95;100772.02;125679;1099;104172;-75
2021/04/22 04:32:51;;;;;;;31.17;13.93;;;;;;;9.28;65.69;100774.84;125624;1097;104172;-76
2021/04/22 04:35:20;;;;;;;32.67;14.27;;;;;;;9.35;65.64;100776.03;125689;1099;104241;-76
2021/04/22 04:37:49;;;;;;;30.67;14.13;;;;;;;9.41;65.11;100778.93;125646;1099;104210;-75
2021/04/22 04:40:19;;;;;;;33.47;14.37;;;;;;;9.48;65.15;100782.71;125634;1099;104334;-76
2021/04/22 04:42:48;;;;;;;30.60;12.83;;;;;;;9.53;65.09;100787.30;125642;1099;104163;-76
2021/04/22 04:45:19;;;;;;;32.40;14.10;;;;;;;9.63;65.22;100780.77;125643;1099;104293;-76
2021/04/22 04:47:49;;;;;;;34.63;15.07;;;;;;;9.77;65.72;100777.84;125660;1099;104306;-76
2021/04/22 04:50:18;;;;;;;35.57;13.93;;;;;;;9.89;65.37;100781.91;125672;1099;104294;-76
2021/04/22 04:52:48;;;;;;;32.93;13.67;;;;;;;10.00;65.85;100771.88;125589;1099;104299;-76
2021/04/22 04:55:17;;;;;;;29.70;13.93;;;;;;;10.13;65.69;100775.91;125605;1099;104172;-76
2021/04/22 04:57:46;;;;;;;32.50;14.10;;;;;;;10.27;65.92;100784.34;125663;1099;104600;-76
2021/04/22 05:00:17;;;;;;;31.63;15.50;;;;;;;10.36;65.64;100781.22;125626;1099;104179;-77
2021/04/22 05:02:46;;;;;;;31.23;13.13;;;;;;;10.47;65.72;100779.04;125645;1099;104194;-76
2021/04/22 05:05:16;;;;;;;30.57;12.60;;;;;;;10.49;65.28;100770.41;125626;1099;104233;-76
2021/04/22 05:07:45;;;;;;;30.50;12.70;;;;;;;10.56;65.45;100768.91;125726;1099;104201;-76
2021/04/22 05:10:16;;;;;;;26.77;11.70;;;;;;;10.64;65.36;100769.22;125635;1099;104172;-77
2021/04/22 05:12:45;;;;;;;28.17;11.90;;;;;;;10.71;65.58;100766.91;125679;1099;104175;-77
2021/04/22 05:15:15;;;;;;;32.10;12.73;;;;;;;10.79;65.64;100775.08;125608;1099;104430;-76
2021/04/22 05:17:44;;;;;;;25.73;12.33;;;;;;;10.83;64.96;100771.75;125626;1099;104273;-76
2021/04/22 05:20:14;;;;;;;28.17;12.67;;;;;;;10.87;65.32;100773.64;125739;1099;104297;-77
2021/04/22 05:22:43;;;;;;;31.97;12.63;;;;;;;10.93;65.00;100770.37;126096;1099;104204;-77
2021/04/22 05:25:12;;;;;;;29.07;12.40;;;;;;;11.01;65.62;100775.91;125589;1099;104172;-76
2021/04/22 05:27:41;;;;;;;33.30;14.10;;;;;;;11.08;65.51;100778.83;125655;1099;104282;-76
2021/04/22 05:30:11;;;;;;;28.20;13.40;;;;;;;11.19;65.13;100776.61;125594;1099;104277;-77
2021/04/22 05:32:40;;;;;;;25.00;12.37;;;;;;;11.28;65.26;100779.59;126311;1099;102135;-76
2021/04/22 05:35:10;;;;;;;28.03;12.70;;;;;;;11.36;65.07;100779.87;125602;1099;104171;-77
2021/04/22 05:37:39;;;;;;;28.67;12.77;;;;;;;11.44;65.24;100775.78;125660;1099;104166;-77
2021/04/22 05:40:09;;;;;;;27.47;12.93;;;;;;;11.56;65.46;100784.95;125586;1099;104375;-77
2021/04/22 05:42:38;;;;;;;23.63;11.30;;;;;;;11.69;65.30;100777.55;125608;1099;104165;-78
2021/04/22 05:45:08;;;;;;;25.43;10.03;;;;;;;11.77;65.16;100775.20;125596;1099;104175;-78
2021/04/22 05:47:53;;;;;;;20.80;8.80;;;;;;;11.90;65.23;100780.89;125614;1098;104236;-79
2021/04/22 05:50:23;;;;;;;17.03;8.17;;;;;;;11.99;65.31;100782.13;125447;1099;104159;-78
2021/04/22 05:52:55;;;;;;;20.00;8.00;;;;;;;12.02;64.92;100784.86;125962;1099;104259;-79
2021/04/22 05:55:28;;;;;;;19.23;8.43;;;;;;;12.12;65.08;100788.69;125560;1099;108153;-79
2021/04/22 05:57:58;;;;;;;19.07;8.43;;;;;;;12.20;65.15;100789.87;125546;1099;104249;-79
2021/04/22 06:00:30;;;;;;;19.67;8.13;;;;;;;12.30;65.23;100787.55;125534;1099;104399;-78
2021/04/22 06:02:59;;;;;;;15.30;7.80;;;;;;;12.40;64.93;100784.36;125534;1099;104221;-78
2021/04/22 06:05:31;;;;;;;14.83;7.47;;;;;;;12.49;64.90;100784.66;125574;1099;104178;-78
2021/04/22 06:08:00;;;;;;;17.27;8.20;;;;;;;12.55;64.94;100782.22;125540;1099;104529;-79
2021/04/22 06:10:29;;;;;;;59.23;30.03;;;;;;;12.65;65.10;100780.77;125641;1099;104178;-78
2021/04/22 06:12:58;;;;;;;18.00;8.25;;;;;;;12.72;65.09;100788.03;125617;1099;104214;-77
2021/04/22 06:15:27;;;;;;;18.33;8.40;;;;;;;12.79;64.83;100790.86;125589;1099;104191;-79
2021/04/22 06:17:56;;;;;;;19.17;8.60;;;;;;;12.85;64.68;100789.30;125610;1099;104172;-76
2021/04/22 06:20:25;;;;;;;20.47;9.47;;;;;;;12.88;64.50;100786.76;125555;1099;104181;-78
2021/04/22 06:22:54;;;;;;;19.97;9.13;;;;;;;12.94;64.23;100789.58;125622;1099;104181;-77
2021/04/22 06:25:24;;;;;;;19.20;9.23;;;;;;;13.01;64.22;100790.69;125573;1099;104421;-77
2021/04/22 06:27:54;;;;;;;17.37;8.23;;;;;;;13.08;64.74;100792.64;125566;1099;104176;-80
2021/04/22 06:30:25;;;;;;;16.50;7.53;;;;;;;13.21;64.18;100790.38;125471;1100;104255;-77
2021/04/22 06:32:55;;;;;;;20.00;8.77;;;;;;;13.34;64.55;100791.65;125700;1099;104192;-78
2021/04/22 06:35:24;;;;;;;21.33;9.00;;;;;;;13.47;64.21;100791.16;125577;1099;104168;-78
2021/04/22 06:37:54;;;;;;;18.63;9.43;;;;;;;13.57;64.24;100793.23;125664;1099;104194;-78
2021/04/22 06:40:26;;;;;;;20.65;10.00;;;;;;;13.64;63.88;100791.64;125618;1099;104232;-79
2021/04/22 06:42:56;;;;;;;21.27;9.67;;;;;;;13.63;64.03;100793.40;125620;1099;104159;-79
2021/04/22 06:45:25;;;;;;;17.87;9.30;;;;;;;13.68;64.16;100789.97;125526;1099;104243;-79
2021/04/22 06:47:54;;;;;;;13.60;6.77;;;;;;;13.75;63.74;100784.03;125544;1099;104137;-79
2021/04/22 06:50:24;;;;;;;14.83;7.43;;;;;;;13.90;64.15;100787.09;125515;1099;102526;-78
2021/04/22 06:52:53;;;;;;;14.27;6.80;;;;;;;14.11;64.18;100785.86;125579;1099;102168;-79
2021/04/22 06:55:24;;;;;;;16.07;6.83;;;;;;;14.22;63.12;100781.73;125564;1099;104287;-78
2021/04/22 06:57:53;;;;;;;17.53;7.13;;;;;;;14.39;64.05;100787.44;125587;1099;104165;-79
2021/04/22 07:00:25;;;;;;;13.53;6.60;;;;;;;14.56;62.55;100779.93;125593;1099;104172;-78
2021/04/22 07:02:57;;;;;;;13.23;6.73;;;;;;;14.68;63.51;100782.89;125578;1099;104182;-78
2021/04/22 07:05:32;;;;;;;15.30;6.80;;;;;;;14.87;63.81;100780.69;125543;1099;104249;-78
2021/04/22 07:08:04;;;;;;;13.83;6.47;;;;;;;15.08;63.22;100786.45;125615;1099;104200;-80
2021/04/22 07:10:38;;;;;;;14.67;6.73;;;;;;;15.21;63.07;100774.38;125500;1098;104369;-79
2021/04/22 07:13:09;;;;;;;13.57;6.60;;;;;;;15.36;62.39;100775.55;125632;1099;104248;-77
2021/04/22 07:15:38;;;;;;;13.50;6.27;;;;;;;15.57;62.03;100780.39;125565;1099;104168;-78
2021/04/22 07:18:09;;;;;;;13.20;6.50;;;;;;;15.64;61.87;100780.55;125670;1099;104303;-78
2021/04/22 07:20:38;;;;;;;15.93;6.50;;;;;;;15.75;62.48;100780.75;125674;1099;104178;-80
2021/04/22 07:23:13;;;;;;;13.23;6.43;;;;;;;15.85;61.34;100783.58;125471;1099;104517;-78
2021/04/22 07:25:50;;;;;;;13.90;5.83;;;;;;;16.00;62.08;100781.21;125599;1099;104220;-78
2021/04/22 07:28:20;;;;;;;13.53;5.87;;;;;;;16.16;61.23;100782.40;125552;1099;104294;-76
2021/04/22 07:30:51;;;;;;;13.95;6.40;;;;;;;16.39;61.51;100784.52;125655;1099;104163;-77
2021/04/22 07:33:20;;;;;;;11.95;5.70;;;;;;;16.51;60.52;100785.61;125615;1099;104159;-78
2021/04/22 07:35:49;;;;;;;15.43;6.50;;;;;;;16.65;61.21;100791.12;125552;1099;104755;-78
2021/04/22 07:38:18;;;;;;;17.07;6.47;;;;;;;16.75;60.42;100784.23;125631;1099;104294;-78
2021/04/22 07:40:48;;;;;;;12.73;5.90;;;;;;;16.87;60.49;100775.58;125653;1099;104217;-78
2021/04/22 07:43:16;;;;;;;9.80;5.17;;;;;;;17.06;60.47;100771.42;125630;1098;104227;-77
2021/04/22 07:45:46;;;;;;;10.40;5.73;;;;;;;17.19;60.14;100775.15;125548;1099;104217;-77
2021/04/22 07:48:15;;;;;;;12.70;5.10;;;;;;;17.25;59.95;100776.11;125594;1099;104152;-78
2021/04/22 07:50:45;;;;;;;12.20;5.37;;;;;;;17.36;59.53;100768.28;125649;1099;104188;-78
2021/04/22 07:53:13;;;;;;;14.00;5.37;;;;;;;17.47;59.67;100770.16;125620;1099;104331;-78
2021/04/22 07:55:45;;;;;;;10.23;4.80;;;;;;;17.57;57.97;100772.94;125612;1098;104159;-78
2021/04/22 07:58:15;;;;;;;9.27;5.17;;;;;;;17.76;58.39;100773.14;125628;1099;104265;-81
2021/04/22 08:00:47;;;;;;;9.40;4.97;;;;;;;17.86;58.54;100769.72;125549;1099;104233;-77
2021/04/22 08:03:18;;;;;;;9.77;4.70;;;;;;;17.94;57.98;100759.21;125620;1099;104220;-76
2021/04/22 08:05:54;;;;;;;10.33;4.60;;;;;;;18.02;58.44;100770.78;125596;1099;104518;-77
2021/04/22 08:08:24;;;;;;;10.17;4.70;;;;;;;18.13;57.60;100768.23;125610;1099;105835;-77
2021/04/22 08:10:56;;;;;;;6.97;4.23;;;;;;;18.21;56.75;100761.21;125656;1098;104372;-77
2021/04/22 08:13:26;;;;;;;8.97;4.80;;;;;;;18.29;57.20;100772.81;125641;1098;104168;-77
2021/04/22 08:15:56;;;;;;;9.27;4.80;;;;;;;18.43;57.18;100764.05;125732;1099;104165;-78
2021/04/22 08:18:28;;;;;;;7.90;4.33;;;;;;;18.57;56.52;100764.15;125738;1099;111489;-77
2021/04/22 08:20:58;;;;;;;7.23;4.10;;;;;;;18.60;56.46;100765.05;125656;1099;104220;-78
2021/04/22 08:23:31;;;;;;;8.73;4.57;;;;;;;18.65;55.55;100768.66;125618;1099;104232;-78
2021/04/22 08:26:03;;;;;;;6.50;4.03;;;;;;;18.74;55.78;100756.30;125626;1099;104381;-76
2021/04/22 08:28:34;;;;;;;9.57;4.57;;;;;;;18.86;55.44;100761.72;125619;1099;104169;-78
2021/04/22 08:31:06;;;;;;;8.53;4.47;;;;;;;18.94;54.50;100757.33;125588;1099;104174;-77
2021/04/22 08:33:37;;;;;;;9.47;4.90;;;;;;;19.00;55.04;100761.80;125681;1099;104212;-78
2021/04/22 08:36:12;;;;;;;9.10;4.13;;;;;;;19.02;54.36;100754.70;125579;1099;104290;-77
2021/04/22 08:38:44;;;;;;;7.10;4.07;;;;;;;19.08;53.93;100761.84;125574;1099;104168;-77
2021/04/22 08:41:13;;;;;;;8.10;4.00;;;;;;;19.10;53.74;100758.28;125637;1099;104165;-76
2021/04/22 08:43:47;;;;;;;7.13;4.57;;;;;;;19.15;52.87;100747.66;125632;1099;104173;-77
2021/04/22 08:46:17;;;;;;;7.70;4.00;;;;;;;19.26;50.87;100737.98;125649;1099;104178;-77
2021/04/22 08:48:47;;;;;;;5.70;3.80;;;;;;;19.31;52.40;100753.97;125683;1099;104232;-77
2021/04/22 08:51:16;;;;;;;6.07;3.93;;;;;;;19.33;52.48;100753.06;125677;1099;104338;-78
2021/04/22 08:53:47;;;;;;;9.17;3.80;;;;;;;19.33;51.60;100747.75;125613;1099;104217;-76
2021/04/22 08:56:18;;;;;;;4.93;3.50;;;;;;;19.49;52.57;100748.67;125618;1099;104176;-78
2021/04/22 08:58:49;;;;;;;6.23;3.90;;;;;;;19.54;51.73;100744.28;125611;1099;104173;-79
2021/04/22 09:01:19;;;;;;;5.63;3.43;;;;;;;19.46;51.58;100740.72;125616;1099;104271;-78
2021/04/22 09:03:49;;;;;;;6.70;3.90;;;;;;;19.53;51.34;100746.94;125605;1099;104193;-78
2021/04/22 09:06:19;;;;;;;8.00;3.90;;;;;;;19.53;50.58;100750.47;125609;1098;104175;-77
2021/04/22 09:08:51;;;;;;;10.17;3.77;;;;;;;19.54;50.51;100740.70;125511;1099;104367;-79
2021/04/22 09:11:23;;;;;;;10.97;3.97;;;;;;;19.62;50.12;100746.05;125499;1099;104152;-77
2021/04/22 09:13:54;;;;;;;5.00;3.50;;;;;;;19.70;50.37;100742.53;125611;1099;104168;-78
2021/04/22 09:16:26;;;;;;;6.67;3.67;;;;;;;19.70;49.53;100745.20;125703;1098;104227;-77
2021/04/22 09:19:08;;;;;;;7.90;3.60;;;;;;;19.71;49.60;100748.73;125574;1099;104200;-79
2021/04/22 09:21:52;;;;;;;9.53;3.57;;;;;;;19.72;48.93;100746.08;125577;1099;104773;-80
2021/04/22 09:24:32;;;;;;;5.80;3.47;;;;;;;19.73;47.64;100744.33;125564;1099;103626;-77
2021/04/22 09:27:10;;;;;;;6.73;4.00;;;;;;;19.81;47.24;100739.92;125529;1099;104274;-79
2021/04/22 09:29:44;;;;;;;5.00;3.70;;;;;;;19.91;48.35;100735.48;125472;1099;104392;-78
2021/04/22 09:32:16;;;;;;;;;;;;;;;19.98;45.12;100731.95;125630;1097;104166;-77
2021/04/22 09:34:49;;;;;;;8.70;3.90;;;;;;;19.98;47.29;100731.08;125573;1099;104232;-77
2021/04/22 09:37:20;;;;;;;5.63;4.17;;;;;;;20.03;46.51;100727.52;125617;1098;104159;-77
2021/04/22 09:39:51;;;;;;;6.53;3.97;;;;;;;20.03;46.52;100724.85;125842;1099;104217;-77
2021/04/22 09:42:30;;;;;;;8.47;3.53;;;;;;;20.07;46.76;100721.31;125618;1099;104175;-77
2021/04/22 09:45:09;;;;;;;5.20;3.60;;;;;;;20.08;47.19;100723.06;125508;1099;104156;-78
2021/04/22 09:47:40;;;;;;;4.27;3.53;;;;;;;20.07;46.27;100717.73;125818;1099;104294;-78
2021/04/22 09:50:13;;;;;;;7.40;3.60;;;;;;;20.05;46.87;100715.08;125616;1099;105246;-78
2021/04/22 09:52:48;;;;;;;7.63;4.00;;;;;;;20.14;46.74;100710.66;125572;1100;104316;-77
2021/04/22 09:55:23;;;;;;;4.83;3.40;;;;;;;20.16;46.06;100711.53;125586;1099;104175;-77
2021/04/22 09:57:53;;;;;;;6.73;4.10;;;;;;;20.15;46.45;100709.74;125569;1099;104169;-77
2021/04/22 10:00:28;;;;;;;7.47;3.97;;;;;;;20.23;46.51;100707.98;125574;1099;104165;-77
2021/04/22 10:03:10;;;;;;;5.70;3.47;;;;;;;20.38;45.65;100705.31;126487;1099;102804;-76
2021/04/22 10:05:44;;;;;;;5.03;3.77;;;;;;;20.45;44.25;100704.39;125544;1099;104335;-79
2021/04/22 10:08:15;;;;;;;7.37;3.70;;;;;;;20.50;45.79;100715.05;125635;1100;104217;-78
2021/04/22 10:10:58;;;;;;;5.10;3.67;;;;;;;20.57;44.18;100703.49;125609;1099;104300;-78
2021/04/22 10:13:42;;;;;;;7.53;3.53;;;;;;;20.68;44.61;100697.26;125577;1099;104224;-80
2021/04/22 10:16:12;;;;;;;4.80;3.60;;;;;;;20.75;44.51;100699.91;125515;1099;104213;-79
2021/04/22 10:18:45;;;;;;;8.17;4.07;;;;;;;20.68;45.13;100705.26;125460;1099;104195;-79
2021/04/22 10:21:17;;;;;;;8.40;4.10;;;;;;;20.64;44.45;100697.27;125568;1099;104230;-79
2021/04/22 10:23:50;;;;;;;5.63;3.70;;;;;;;20.60;44.36;100695.48;125549;1099;104181;-78
2021/04/22 10:26:22;;;;;;;6.90;3.83;;;;;;;20.61;44.74;100699.03;125565;1099;104251;-78
2021/04/22 10:28:52;;;;;;;6.25;3.47;;;;;;;20.68;43.87;100691.93;125569;1099;104291;-79
2021/04/22 10:31:25;;;;;;;5.17;3.40;;;;;;;20.77;43.72;100687.48;125565;1099;104293;-79
2021/04/22 10:34:07;;;;;;;5.47;3.80;;;;;;;20.83;43.45;100687.45;125580;1098;104184;-79
2021/04/22 10:36:42;;;;;;;7.43;3.60;;;;;;;20.80;43.08;100689.23;125653;1099;104198;-79
2021/04/22 10:39:12;;;;;;;6.27;3.40;;;;;;;20.73;43.61;100685.70;125542;1099;105818;-78
2021/04/22 10:41:53;;;;;;;11.23;3.60;;;;;;;20.68;43.29;100692.84;125528;1099;104203;-78
2021/04/22 10:44:39;;;;;;;5.30;3.77;;;;;;;20.46;42.91;100689.31;125536;1099;104238;-77
2021/04/22 10:47:25;;;;;;;4.37;3.10;;;;;;;20.32;42.78;100689.33;125554;1099;104171;-77
2021/04/22 10:49:54;;;;;;;6.22;3.70;;;;;;;20.29;42.59;100676.01;125582;1099;104181;-78
2021/04/22 10:52:24;;;;;;;8.47;3.50;;;;;;;20.31;42.29;100676.88;125588;1099;104283;-78
2021/04/22 10:54:54;;;;;;;6.70;3.50;;;;;;;20.38;41.85;100673.33;125620;1099;104175;-79
2021/04/22 10:57:24;;;;;;;7.63;3.50;;;;;;;20.45;40.88;100669.74;125645;1099;104296;-79
2021/04/22 11:00:07;;;;;;;4.20;3.20;;;;;;;20.51;41.62;100673.31;125476;1099;104274;-79
2021/04/22 11:02:44;;;;;;;4.97;3.27;;;;;;;20.55;41.15;100669.72;125784;1098;104172;-78
2021/04/22 11:05:25;;;;;;;7.83;3.73;;;;;;;20.56;40.89;100666.17;125609;1099;104219;-78
2021/04/22 11:08:01;;;;;;;5.97;3.43;;;;;;;20.50;41.23;100663.53;125605;1099;105431;-79
2021/04/22 11:10:37;;;;;;;5.47;3.10;;;;;;;20.40;40.79;100678.66;125940;1099;102770;-78
2021/04/22 11:13:13;;;;;;;6.13;3.33;;;;;;;20.36;41.42;100668.88;126174;1099;104175;-78
2021/04/22 11:15:58;;;;;;;5.10;3.40;;;;;;;20.42;41.22;100669.75;125634;1099;104213;-79
2021/04/22 11:18:37;;;;;;;5.17;3.40;;;;;;;20.48;40.15;100667.07;125566;1099;104318;-79
2021/04/22 11:21:19;;;;;;;5.27;3.13;;;;;;;20.52;40.76;100659.06;125584;1099;104181;-78